createdAt,value
2022-08-26T00:00:52.067Z,61.07
2022-08-26T00:03:20.846Z,60.90
2022-08-26T00:05:51.008Z,60.96
2022-08-26T00:08:21.519Z,61.33
2022-08-26T00:10:49.881Z,61.04
2022-08-26T00:13:19.726Z,61.21
2022-08-26T00:15:48.055Z,61.93
2022-08-26T00:18:21.961Z,62.15
2022-08-26T00:20:51.575Z,61.59
2022-08-26T00:23:20.495Z,60.88
2022-08-26T00:25:52.919Z,59.71
2022-08-26T00:28:23.908Z,59.12
2022-08-26T00:30:52.483Z,58.75
2022-08-26T00:33:22.200Z,59.55
2022-08-26T00:35:50.548Z,59.96
2022-08-26T00:38:22.861Z,59.87
2022-08-26T00:40:53.753Z,60.13
2022-08-26T00:43:25.637Z,60.06
2022-08-26T00:45:58.840Z,60.25
2022-08-26T00:48:31.719Z,60.31
2022-08-26T00:51:03.721Z,59.88
2022-08-26T00:53:37.777Z,59.57
2022-08-26T00:56:17.991Z,59.90
2022-08-26T00:58:48.637Z,59.67
2022-08-26T01:01:18.299Z,59.59
2022-08-26T01:03:51.488Z,59.69
2022-08-26T01:06:20.997Z,60.26
2022-08-26T01:08:49.396Z,60.63
2022-08-26T01:11:17.733Z,61.04
2022-08-26T01:13:48.755Z,61.80
2022-08-26T01:16:18.034Z,62.38
2022-08-26T01:18:46.915Z,62.13
2022-08-26T01:21:22.964Z,62.17
2022-08-26T01:23:57.446Z,61.27
2022-08-26T01:26:30.981Z,61.67
2022-08-26T01:29:03.954Z,61.38
2022-08-26T01:31:38.611Z,61.84
2022-08-26T01:34:12.129Z,61.74
2022-08-26T01:36:41.661Z,62.28
2022-08-26T01:39:11.773Z,62.44
2022-08-26T01:41:44.063Z,63.19
2022-08-26T01:44:19.334Z,62.19
2022-08-26T01:46:50.723Z,62.10
2022-08-26T01:49:20.542Z,62.30
2022-08-26T01:51:50.815Z,63.03
2022-08-26T01:54:20.671Z,62.62
2022-08-26T01:56:55.275Z,62.92
2022-08-26T01:59:25.679Z,62.55
2022-08-26T02:01:55.282Z,62.80
2022-08-26T02:04:27.252Z,62.77
2022-08-26T02:06:56.999Z,62.75
2022-08-26T02:09:28.713Z,63.54
2022-08-26T02:12:01.898Z,63.89
2022-08-26T02:14:35.942Z,63.80
2022-08-26T02:17:13.472Z,63.71
2022-08-26T02:19:47.096Z,64.39
2022-08-26T02:22:19.240Z,64.35
2022-08-26T02:24:50.861Z,64.43
2022-08-26T02:27:21.088Z,64.12
2022-08-26T02:29:52.642Z,64.03
2022-08-26T02:32:20.864Z,63.88
2022-08-26T02:34:49.423Z,64.17
2022-08-26T02:37:17.818Z,64.97
2022-08-26T02:39:50.460Z,64.78
2022-08-26T02:42:20.369Z,64.19
2022-08-26T02:44:48.888Z,64.44
2022-08-26T02:47:18.182Z,64.69
2022-08-26T02:49:47.584Z,64.48
2022-08-26T02:52:16.601Z,64.63
2022-08-26T02:54:45.476Z,64.70
2022-08-26T02:57:15.284Z,64.67
2022-08-26T02:59:43.564Z,64.22
2022-08-26T03:02:13.024Z,64.32
2022-08-26T03:04:57.338Z,64.58
2022-08-26T03:07:30.894Z,64.84
2022-08-26T03:09:59.598Z,65.05
2022-08-26T03:12:29.287Z,64.84
2022-08-26T03:14:58.021Z,65.28
2022-08-26T03:17:26.898Z,64.70
2022-08-26T03:19:57.240Z,64.56
2022-08-26T03:22:27.233Z,64.79
2022-08-26T03:24:55.931Z,65.58
2022-08-26T03:27:24.230Z,65.24
2022-08-26T03:30:11.644Z,65.31
2022-08-26T03:32:41.547Z,65.73
2022-08-26T03:35:10.268Z,64.37
2022-08-26T03:37:38.787Z,64.49
2022-08-26T03:40:10.532Z,64.59
2022-08-26T03:42:39.441Z,64.85
2022-08-26T03:45:11.406Z,64.47
2022-08-26T03:47:41.120Z,65.56
2022-08-26T03:50:12.052Z,65.80
2022-08-26T03:52:43.917Z,65.98
2022-08-26T03:55:13.417Z,65.80
2022-08-26T03:57:42.369Z,64.99
2022-08-26T04:00:18.529Z,65.10
2022-08-26T04:02:51.267Z,64.93
2022-08-26T04:05:23.095Z,64.07
2022-08-26T04:07:51.721Z,64.58
2022-08-26T04:10:28.726Z,64.51
2022-08-26T04:12:59.407Z,64.27
2022-08-26T04:15:29.848Z,63.15
2022-08-26T04:17:58.351Z,63.79
2022-08-26T04:20:26.790Z,63.77
2022-08-26T04:22:55.062Z,63.69
2022-08-26T04:25:24.159Z,62.73
2022-08-26T04:27:53.004Z,62.37
2022-08-26T04:30:21.335Z,61.99
2022-08-26T04:32:51.259Z,61.71
2022-08-26T04:35:23.892Z,61.28
2022-08-26T04:37:54.316Z,61.16
2022-08-26T04:40:22.733Z,61.42
2022-08-26T04:42:51.597Z,61.11
2022-08-26T04:45:22.775Z,60.84
2022-08-26T04:47:56.490Z,60.88
2022-08-26T04:50:26.566Z,61.01
2022-08-26T04:52:56.319Z,60.94
2022-08-26T04:55:38.585Z,60.02
2022-08-26T04:58:12.168Z,58.93
2022-08-26T05:00:40.445Z,58.22
2022-08-26T05:03:10.569Z,57.20
2022-08-26T05:05:41.370Z,56.60
2022-08-26T05:08:11.237Z,55.71
2022-08-26T05:10:43.751Z,55.97
2022-08-26T05:13:15.141Z,56.77
2022-08-26T05:15:45.285Z,56.32
2022-08-26T05:18:16.743Z,56.58
2022-08-26T05:20:48.394Z,56.27
2022-08-26T05:23:18.384Z,55.46
2022-08-26T05:25:49.027Z,55.68
2022-08-26T05:28:18.866Z,55.07
2022-08-26T05:30:47.534Z,55.03
2022-08-26T05:33:17.692Z,54.22
2022-08-26T05:35:47.411Z,54.47
2022-08-26T05:38:18.015Z,54.09
2022-08-26T05:40:49.109Z,53.78
2022-08-26T05:43:22.725Z,52.68
2022-08-26T05:45:52.216Z,52.19
2022-08-26T05:48:24.390Z,52.03
2022-08-26T05:50:54.563Z,52.42
2022-08-26T05:53:23.927Z,52.45
2022-08-26T05:55:56.420Z,52.01
2022-08-26T05:58:27.316Z,50.82
2022-08-26T06:01:06.964Z,51.17
2022-08-26T06:03:39.653Z,50.92
2022-08-26T06:06:11.281Z,51.12
2022-08-26T06:08:40.314Z,50.76
2022-08-26T06:11:18.327Z,50.87
2022-08-26T06:13:47.484Z,51.19
2022-08-26T06:16:19.620Z,51.03
2022-08-26T06:18:50.733Z,51.24
2022-08-26T06:21:21.246Z,51.39
2022-08-26T06:24:09.441Z,50.70
2022-08-26T06:26:38.188Z,50.97
2022-08-26T06:29:07.767Z,51.43
2022-08-26T06:31:37.783Z,51.00
2022-08-26T06:34:10.926Z,50.08
2022-08-26T06:36:40.669Z,49.79
2022-08-26T06:39:14.262Z,49.83
2022-08-26T06:41:44.777Z,49.41
2022-08-26T06:44:15.443Z,48.56
2022-08-26T06:46:44.562Z,49.29
2022-08-26T06:49:14.383Z,48.44
2022-08-26T06:51:45.926Z,47.97
2022-08-26T06:54:17.215Z,48.40
2022-08-26T06:56:45.707Z,48.49
2022-08-26T06:59:16.139Z,48.01
2022-08-26T07:01:45.869Z,47.62
2022-08-26T07:04:22.153Z,46.87
2022-08-26T07:06:53.593Z,47.63
2022-08-26T07:09:23.871Z,47.19
2022-08-26T07:11:53.198Z,46.58
2022-08-26T07:14:22.062Z,46.18
2022-08-26T07:16:50.588Z,46.71
2022-08-26T07:19:30.146Z,45.81
2022-08-26T07:21:59.096Z,45.50
2022-08-26T07:24:28.525Z,44.79
2022-08-26T07:27:00.829Z,45.05
2022-08-26T07:29:30.040Z,45.40
2022-08-26T07:31:59.700Z,44.37
2022-08-26T07:34:29.991Z,44.03
2022-08-26T07:36:58.837Z,44.22
2022-08-26T07:39:27.994Z,44.43
2022-08-26T07:41:56.271Z,44.17
2022-08-26T07:44:27.266Z,44.20
2022-08-26T07:46:55.651Z,44.81
2022-08-26T07:49:26.965Z,44.89
2022-08-26T07:51:58.232Z,46.30
2022-08-26T07:54:27.324Z,45.01
2022-08-26T07:56:56.158Z,45.10
2022-08-26T07:59:25.013Z,44.19
2022-08-26T08:01:53.933Z,44.36
2022-08-26T08:04:26.412Z,44.67
2022-08-26T08:06:55.957Z,44.81
2022-08-26T08:09:26.061Z,43.86
2022-08-26T08:11:55.698Z,44.82
2022-08-26T08:14:24.104Z,44.16
2022-08-26T08:16:54.966Z,43.96
2022-08-26T08:19:23.912Z,43.53
2022-08-26T08:21:56.635Z,43.07
2022-08-26T08:24:26.343Z,43.50
2022-08-26T08:26:54.488Z,41.99
2022-08-26T08:29:25.078Z,42.89
2022-08-26T08:31:56.819Z,42.38
2022-08-26T08:34:28.172Z,43.08
2022-08-26T08:36:57.205Z,43.21
2022-08-26T08:39:27.596Z,42.94
2022-08-26T08:42:16.223Z,42.80
2022-08-26T08:44:52.037Z,43.13
2022-08-26T08:47:29.179Z,43.39
2022-08-26T08:50:01.297Z,43.72
2022-08-26T08:52:33.964Z,43.06
2022-08-26T08:55:04.454Z,42.56
2022-08-26T08:57:53.777Z,42.01
2022-08-26T09:00:30.377Z,42.20
2022-08-26T09:03:04.334Z,41.62
2022-08-26T09:05:42.583Z,41.49
2022-08-26T09:08:19.735Z,41.31
2022-08-26T09:10:54.429Z,41.84
2022-08-26T09:13:25.117Z,42.46
2022-08-26T09:16:04.637Z,41.53
2022-08-26T09:18:48.833Z,41.18
2022-08-26T09:21:19.384Z,40.52
2022-08-26T09:23:49.656Z,40.91
2022-08-26T09:26:25.869Z,40.70
2022-08-26T09:28:59.073Z,39.83
2022-08-26T09:31:29.502Z,39.49
2022-08-26T09:34:09.513Z,39.90
2022-08-26T09:36:41.459Z,39.55
2022-08-26T09:39:30.782Z,38.44
2022-08-26T09:42:12.958Z,38.05
2022-08-26T09:45:06.197Z,37.34
2022-08-26T09:47:39.194Z,35.56
2022-08-26T09:50:20.304Z,34.01
2022-08-26T09:52:48.909Z,33.25
2022-08-26T09:55:24.123Z,35.58
2022-08-26T09:57:55.277Z,35.52
2022-08-26T10:00:30.771Z,33.94
2022-08-26T10:03:01.855Z,33.44
2022-08-26T10:05:36.183Z,33.39
2022-08-26T10:08:23.229Z,34.13
2022-08-26T10:10:53.851Z,33.65
2022-08-26T10:13:31.595Z,33.51
2022-08-26T10:16:17.918Z,33.42
2022-08-26T10:18:56.765Z,32.29
2022-08-26T10:21:33.700Z,32.07
2022-08-26T10:24:04.952Z,32.25
2022-08-26T10:26:42.599Z,32.11
2022-08-26T10:29:17.233Z,31.52
2022-08-26T10:31:51.998Z,30.13
2022-08-26T10:34:21.094Z,28.57
2022-08-26T10:37:14.271Z,29.05
2022-08-26T10:39:56.940Z,29.42
2022-08-26T10:42:33.642Z,29.87
2022-08-26T10:45:11.733Z,30.15
2022-08-26T10:47:49.568Z,30.85
2022-08-26T10:50:19.019Z,30.54
2022-08-26T10:53:02.064Z,30.77
2022-08-26T10:55:38.910Z,31.82
2022-08-26T10:58:26.241Z,31.65
2022-08-26T11:01:22.846Z,31.62
2022-08-26T11:04:01.516Z,31.54
2022-08-26T11:06:31.519Z,31.21
2022-08-26T11:09:02.338Z,31.27
2022-08-26T11:11:51.219Z,30.90
2022-08-26T11:14:53.507Z,30.49
2022-08-26T11:17:57.673Z,30.93
2022-08-26T11:20:41.560Z,31.75
2022-08-26T11:23:50.274Z,31.48
2022-08-26T11:26:27.524Z,31.86
2022-08-26T11:29:13.490Z,31.26
2022-08-26T11:31:59.016Z,31.75
2022-08-26T11:34:56.260Z,31.44
2022-08-26T11:37:32.288Z,31.27
2022-08-26T11:40:03.982Z,31.88
2022-08-26T11:42:41.582Z,32.69
2022-08-26T11:45:20.605Z,33.26
2022-08-26T11:47:49.424Z,32.76
2022-08-26T11:50:24.015Z,33.50
2022-08-26T11:53:01.764Z,33.75
2022-08-26T11:55:31.053Z,33.54
2022-08-26T11:58:02.214Z,32.31
2022-08-26T12:00:45.583Z,33.21
2022-08-26T12:03:21.101Z,32.39
2022-08-26T12:05:54.516Z,31.36
2022-08-26T12:08:27.957Z,31.80
2022-08-26T12:11:05.503Z,32.66
2022-08-26T12:13:35.932Z,32.78
2022-08-26T12:16:07.731Z,32.55
2022-08-26T12:18:39.020Z,30.22
2022-08-26T12:21:17.524Z,29.55
2022-08-26T12:23:50.104Z,29.61
2022-08-26T12:26:25.260Z,30.18
2022-08-26T12:28:57.496Z,30.94
2022-08-26T12:31:31.307Z,30.69
2022-08-26T12:34:01.682Z,30.81
2022-08-26T12:36:35.200Z,32.18
2022-08-26T12:39:08.910Z,33.14
2022-08-26T12:41:46.518Z,34.04
2022-08-26T12:44:53.138Z,30.87
2022-08-26T12:47:41.905Z,31.44
2022-08-26T12:50:19.315Z,33.26
2022-08-26T12:52:59.347Z,29.23
2022-08-26T12:55:37.497Z,28.62
2022-08-26T12:58:20.768Z,29.16
2022-08-26T13:00:49.739Z,30.28
2022-08-26T13:03:38.331Z,30.71
2022-08-26T13:06:16.060Z,32.62
2022-08-26T13:08:47.698Z,32.94
2022-08-26T13:11:20.851Z,32.93
2022-08-26T13:13:51.952Z,33.56
2022-08-26T13:16:22.487Z,32.64
2022-08-26T13:18:53.721Z,32.88
2022-08-26T13:21:24.783Z,33.29
2022-08-26T13:23:54.492Z,33.05
2022-08-26T13:26:23.414Z,33.38
2022-08-26T13:29:01.434Z,32.95
2022-08-26T13:31:32.765Z,33.21
2022-08-26T13:34:01.790Z,33.60
2022-08-26T13:36:30.013Z,33.42
2022-08-26T13:38:59.610Z,32.45
2022-08-26T13:41:29.221Z,32.47
2022-08-26T13:43:58.818Z,32.83
2022-08-26T13:46:28.493Z,32.99
2022-08-26T13:48:56.917Z,33.19
2022-08-26T13:51:26.980Z,32.83
2022-08-26T13:53:55.795Z,33.01
2022-08-26T13:56:27.546Z,31.15
2022-08-26T13:58:56.438Z,31.33
2022-08-26T14:01:25.798Z,32.05
2022-08-26T14:03:54.161Z,32.37
2022-08-26T14:06:23.011Z,32.87
2022-08-26T14:08:51.281Z,32.40
2022-08-26T14:11:19.570Z,33.51
2022-08-26T14:13:49.313Z,33.14
2022-08-26T14:16:25.524Z,33.08
2022-08-26T14:18:54.297Z,32.60
2022-08-26T14:21:22.645Z,32.82
2022-08-26T14:23:50.926Z,32.40
2022-08-26T14:26:28.117Z,32.34
2022-08-26T14:28:59.827Z,32.47
2022-08-26T14:31:29.544Z,32.43
2022-08-26T14:33:59.605Z,31.97
2022-08-26T14:36:32.382Z,32.11
2022-08-26T14:39:03.297Z,32.10
2022-08-26T14:41:33.536Z,31.79
2022-08-26T14:44:05.997Z,31.51
2022-08-26T14:46:40.637Z,31.10
2022-08-26T14:49:10.720Z,31.63
2022-08-26T14:51:42.118Z,31.40
2022-08-26T14:54:14.184Z,31.37
2022-08-26T14:56:47.218Z,32.50
2022-08-26T14:59:20.377Z,33.11
2022-08-26T15:01:48.885Z,33.40
2022-08-26T15:04:17.367Z,33.45
2022-08-26T15:06:46.285Z,32.99
2022-08-26T15:09:14.852Z,32.98
2022-08-26T15:11:43.398Z,31.93
2022-08-26T15:14:14.698Z,32.12
2022-08-26T15:16:49.741Z,31.95
2022-08-26T15:19:18.540Z,32.20
2022-08-26T15:21:47.594Z,31.54
2022-08-26T15:24:20.154Z,32.23
2022-08-26T15:26:50.687Z,31.58
2022-08-26T15:29:19.464Z,31.67
2022-08-26T15:31:49.218Z,31.08
2022-08-26T15:34:17.471Z,31.61
2022-08-26T15:36:46.903Z,31.74
2022-08-26T15:39:16.367Z,32.23
2022-08-26T15:41:44.784Z,32.65
2022-08-26T15:44:14.186Z,33.09
2022-08-26T15:46:43.080Z,33.29
2022-08-26T15:49:18.245Z,32.80
2022-08-26T15:51:50.457Z,33.38
2022-08-26T15:54:21.157Z,33.54
2022-08-26T15:56:52.521Z,32.55
2022-08-26T15:59:22.210Z,33.33
2022-08-26T16:01:51.378Z,34.07
2022-08-26T16:04:21.478Z,34.73
2022-08-26T16:06:52.245Z,35.47
2022-08-26T16:09:23.542Z,36.41
2022-08-26T16:11:52.398Z,36.42
2022-08-26T16:14:20.739Z,36.26
2022-08-26T16:16:49.313Z,36.42
2022-08-26T16:19:18.297Z,37.26
2022-08-26T16:21:48.104Z,37.76
2022-08-26T16:24:16.263Z,38.55
2022-08-26T16:26:45.477Z,38.69
2022-08-26T16:29:15.659Z,39.59
2022-08-26T16:31:43.919Z,40.06
2022-08-26T16:34:12.655Z,39.73
2022-08-26T16:36:41.330Z,40.15
2022-08-26T16:39:11.319Z,39.81
2022-08-26T16:41:39.918Z,40.25
2022-08-26T16:44:09.034Z,40.18
2022-08-26T16:46:37.733Z,40.89
2022-08-26T16:49:05.951Z,40.66
2022-08-26T16:51:38.355Z,40.68
2022-08-26T16:54:08.566Z,41.03
2022-08-26T16:56:38.591Z,40.60
2022-08-26T16:59:09.620Z,41.10
2022-08-26T17:01:38.410Z,41.27
2022-08-26T17:04:06.580Z,41.86
2022-08-26T17:06:35.547Z,42.04
2022-08-26T17:09:03.945Z,42.59
2022-08-26T17:11:32.666Z,42.59
2022-08-26T17:14:03.158Z,42.62
2022-08-26T17:16:31.570Z,42.48
2022-08-26T17:19:00.865Z,43.13
2022-08-26T17:21:29.477Z,42.32
2022-08-26T17:23:57.747Z,43.20
2022-08-26T17:26:26.256Z,42.70
2022-08-26T17:28:54.806Z,43.28
2022-08-26T17:31:25.188Z,43.55
2022-08-26T17:33:54.555Z,43.69
2022-08-26T17:36:27.474Z,44.11
2022-08-26T17:38:57.630Z,44.19
2022-08-26T17:41:26.491Z,44.41
2022-08-26T17:43:54.660Z,44.76
2022-08-26T17:46:24.528Z,45.11
2022-08-26T17:48:53.016Z,45.83
2022-08-26T17:51:23.034Z,46.21
2022-08-26T17:53:52.677Z,47.04
2022-08-26T17:56:25.625Z,48.06
2022-08-26T17:58:54.882Z,49.31
2022-08-26T18:01:27.684Z,50.58
2022-08-26T18:04:00.266Z,51.11
2022-08-26T18:06:30.405Z,52.57
2022-08-26T18:08:58.939Z,52.96
2022-08-26T18:11:27.207Z,54.07
2022-08-26T18:13:55.409Z,54.25
2022-08-26T18:16:23.770Z,54.42
2022-08-26T18:18:53.994Z,55.11
2022-08-26T18:21:25.900Z,55.17
2022-08-26T18:23:54.848Z,55.10
2022-08-26T18:26:27.783Z,55.23
2022-08-26T18:28:56.409Z,54.33
2022-08-26T18:31:25.135Z,54.28
2022-08-26T18:33:55.272Z,53.47
2022-08-26T18:36:26.010Z,53.04
2022-08-26T18:38:55.369Z,53.80
2022-08-26T18:41:26.405Z,53.16
2022-08-26T18:43:55.874Z,53.07
2022-08-26T18:46:26.394Z,51.66
2022-08-26T18:48:57.635Z,51.34
2022-08-26T18:51:29.655Z,50.69
2022-08-26T18:53:58.543Z,50.91
2022-08-26T18:56:27.342Z,50.90
2022-08-26T18:58:55.589Z,50.52
2022-08-26T19:01:27.429Z,49.58
2022-08-26T19:03:57.388Z,49.88
2022-08-26T19:06:27.522Z,49.25
2022-08-26T19:08:57.941Z,48.71
2022-08-26T19:11:31.683Z,48.19
2022-08-26T19:14:01.374Z,48.18
2022-08-26T19:16:30.567Z,47.91
2022-08-26T19:19:01.848Z,47.77
2022-08-26T19:21:31.010Z,47.62
2022-08-26T19:24:01.034Z,48.53
2022-08-26T19:26:29.962Z,48.89
2022-08-26T19:28:58.339Z,50.15
2022-08-26T19:31:26.596Z,50.17
2022-08-26T19:33:56.677Z,50.59
2022-08-26T19:36:27.771Z,50.43
2022-08-26T19:38:56.775Z,50.87
2022-08-26T19:41:37.401Z,51.13
2022-08-26T19:44:09.198Z,51.21
2022-08-26T19:49:07.229Z,51.67
2022-08-26T19:51:37.910Z,51.07
2022-08-26T19:54:06.335Z,51.15
2022-08-26T19:56:34.946Z,51.16
2022-08-26T19:59:03.223Z,51.17
2022-08-26T20:01:31.881Z,51.53
2022-08-26T20:03:59.997Z,51.64
2022-08-26T20:06:28.162Z,51.01
2022-08-26T20:08:58.233Z,51.13
2022-08-26T20:11:26.678Z,51.31
2022-08-26T20:13:55.532Z,51.65
2022-08-26T20:16:23.807Z,51.73
2022-08-26T20:19:09.799Z,52.16
2022-08-26T20:21:40.861Z,52.66
2022-08-26T20:24:16.379Z,53.23
2022-08-26T20:26:46.587Z,52.98
2022-08-26T20:29:16.857Z,53.52
2022-08-26T20:31:45.599Z,53.72
2022-08-26T20:34:14.554Z,53.78
2022-08-26T20:36:44.006Z,54.04
2022-08-26T20:39:13.820Z,54.50
2022-08-26T20:41:42.359Z,55.04
2022-08-26T20:44:10.695Z,55.57
2022-08-26T20:46:38.942Z,56.13
2022-08-26T20:49:07.886Z,56.42
2022-08-26T20:51:37.155Z,56.75
2022-08-26T20:54:06.338Z,57.09
2022-08-26T20:56:37.057Z,57.77
2022-08-26T20:59:06.934Z,57.52
2022-08-26T21:01:37.511Z,58.49
2022-08-26T21:04:13.965Z,58.73
2022-08-26T21:07:00.890Z,59.23
2022-08-26T21:09:29.087Z,59.45
2022-08-26T21:12:00.477Z,59.23
2022-08-26T21:14:29.816Z,58.79
2022-08-26T21:16:58.327Z,57.23
2022-08-26T21:19:26.801Z,55.81
2022-08-26T21:21:54.973Z,55.84
2022-08-26T21:24:23.082Z,55.45
2022-08-26T21:26:51.241Z,56.04
2022-08-26T21:29:22.100Z,56.16
2022-08-26T21:31:50.463Z,56.35
2022-08-26T21:34:19.802Z,56.83
2022-08-26T21:36:49.387Z,56.45
2022-08-26T21:39:17.686Z,56.53
2022-08-26T21:41:47.258Z,56.38
2022-08-26T21:44:16.863Z,56.69
2022-08-26T21:46:47.302Z,57.22
2022-08-26T21:49:17.505Z,57.30
2022-08-26T21:51:47.842Z,57.21
2022-08-26T21:54:18.221Z,56.68
2022-08-26T21:56:47.718Z,56.61
2022-08-26T21:59:17.680Z,56.84
2022-08-26T22:01:47.831Z,57.07
2022-08-26T22:04:17.085Z,57.40
2022-08-26T22:06:47.298Z,57.83
2022-08-26T22:09:17.075Z,58.02
2022-08-26T22:11:45.924Z,58.44
2022-08-26T22:14:14.541Z,58.82
2022-08-26T22:16:50.281Z,59.37
2022-08-26T22:19:21.195Z,59.50
2022-08-26T22:21:53.050Z,59.73
2022-08-26T22:24:23.831Z,59.86
2022-08-26T22:26:52.440Z,59.96
2022-08-26T22:29:20.986Z,60.13
2022-08-26T22:31:49.127Z,60.14
2022-08-26T22:34:19.636Z,60.63
2022-08-26T22:36:50.705Z,61.16
2022-08-26T22:39:21.244Z,61.74
2022-08-26T22:41:49.683Z,62.38
2022-08-26T22:44:19.396Z,63.22
2022-08-26T22:46:49.053Z,63.68
2022-08-26T22:49:18.353Z,64.14
2022-08-26T22:51:48.469Z,64.50
2022-08-26T22:54:17.435Z,65.00
2022-08-26T22:56:46.177Z,65.21
2022-08-26T22:59:16.291Z,65.27
2022-08-26T23:01:46.893Z,65.68
2022-08-26T23:04:15.954Z,65.75
2022-08-26T23:06:47.573Z,66.30
2022-08-26T23:09:19.396Z,66.39
2022-08-26T23:11:48.742Z,66.85
2022-08-26T23:14:17.336Z,67.37
2022-08-26T23:16:45.977Z,67.20
2022-08-26T23:19:16.091Z,67.26
2022-08-26T23:21:44.543Z,67.30
2022-08-26T23:24:13.389Z,67.68
2022-08-26T23:26:43.152Z,68.16
2022-08-26T23:29:12.695Z,68.64
2022-08-26T23:31:43.068Z,69.05
2022-08-26T23:34:29.436Z,69.37
2022-08-26T23:36:59.049Z,68.84
2022-08-26T23:39:28.229Z,69.32
2022-08-26T23:41:58.198Z,68.80
2022-08-26T23:44:26.809Z,68.84
2022-08-26T23:46:55.165Z,68.73
2022-08-26T23:49:23.663Z,68.94
2022-08-26T23:52:09.421Z,69.01
2022-08-26T23:54:38.655Z,69.12
2022-08-26T23:57:09.446Z,69.21
2022-08-26T23:59:39.181Z,69.46
